createdAt,value
2017-07-03T00:00:59.737Z,74.70
2017-07-03T00:03:27.909Z,74.30
2017-07-03T00:05:56.734Z,74.60
2017-07-03T00:08:24.818Z,74.80
2017-07-03T00:10:53.286Z,75.30
2017-07-03T00:13:21.358Z,74.80
2017-07-03T00:15:50.182Z,75.10
2017-07-03T00:18:19.010Z,76.20
2017-07-03T00:20:47.069Z,75.80
2017-07-03T00:23:15.146Z,76.30
2017-07-03T00:25:43.213Z,77.00
2017-07-03T00:28:11.265Z,77.10
2017-07-03T00:30:39.357Z,77.40
2017-07-03T00:33:07.439Z,77.50
2017-07-03T00:35:35.926Z,78.20
2017-07-03T00:38:03.976Z,78.10
2017-07-03T00:40:32.422Z,79.20
2017-07-03T00:43:01.289Z,80.00
2017-07-03T00:45:29.316Z,79.90
2017-07-03T00:47:57.402Z,80.50
2017-07-03T00:50:25.475Z,80.50
2017-07-03T00:52:53.938Z,79.70
2017-07-03T00:55:21.993Z,79.30
2017-07-03T00:57:50.095Z,79.70
2017-07-03T01:00:18.232Z,80.20
2017-07-03T01:02:46.712Z,80.70
2017-07-03T01:05:15.565Z,82.50
2017-07-03T01:07:43.708Z,81.40
2017-07-03T01:10:11.882Z,81.50
2017-07-03T01:12:39.977Z,81.40
2017-07-03T01:15:08.138Z,81.10
2017-07-03T01:17:36.213Z,81.20
2017-07-03T01:20:04.291Z,81.30
2017-07-03T01:22:32.373Z,81.00
2017-07-03T01:25:00.530Z,81.10
2017-07-03T01:27:28.703Z,81.70
2017-07-03T01:29:56.774Z,81.70
2017-07-03T01:32:24.846Z,82.20
2017-07-03T01:34:53.322Z,81.60
2017-07-03T01:37:21.406Z,81.50
2017-07-03T01:39:49.488Z,81.30
2017-07-03T01:42:17.593Z,80.70
2017-07-03T01:44:46.446Z,81.00
2017-07-03T01:47:14.539Z,80.10
2017-07-03T01:49:42.791Z,80.10
2017-07-03T01:52:10.865Z,79.80
2017-07-03T01:54:38.978Z,79.00
2017-07-03T01:57:07.539Z,78.70
2017-07-03T01:59:36.457Z,78.50
2017-07-03T02:02:04.602Z,77.80
2017-07-03T02:04:33.106Z,77.40
2017-07-03T02:07:02.135Z,76.80
2017-07-03T02:09:30.938Z,77.50
2017-07-03T02:11:59.003Z,76.40
2017-07-03T02:14:27.078Z,77.60
2017-07-03T02:16:55.125Z,77.30
2017-07-03T02:19:23.654Z,77.80
2017-07-03T02:21:51.741Z,77.30
2017-07-03T02:24:19.787Z,77.20
2017-07-03T02:26:48.632Z,76.40
2017-07-03T02:29:16.695Z,76.20
2017-07-03T02:31:45.168Z,76.70
2017-07-03T02:34:13.267Z,76.60
2017-07-03T02:36:41.715Z,76.40
2017-07-03T02:39:09.854Z,76.20
2017-07-03T02:41:37.930Z,75.40
2017-07-03T02:44:06.018Z,75.70
2017-07-03T02:46:34.174Z,76.40
2017-07-03T02:49:02.259Z,76.50
2017-07-03T02:51:31.073Z,77.00
2017-07-03T02:53:59.137Z,78.20
2017-07-03T02:56:27.597Z,77.60
2017-07-03T02:58:55.655Z,77.60
2017-07-03T03:01:23.706Z,77.20
2017-07-03T03:03:51.778Z,77.10
2017-07-03T03:06:19.873Z,77.40
2017-07-03T03:08:48.358Z,77.30
2017-07-03T03:11:16.414Z,77.30
2017-07-03T03:13:44.502Z,76.70
2017-07-03T03:16:12.575Z,76.10
2017-07-03T03:18:41.772Z,76.40
2017-07-03T03:21:09.832Z,75.80
2017-07-03T03:23:37.886Z,76.10
2017-07-03T03:26:06.010Z,76.30
2017-07-03T03:28:34.064Z,76.10
2017-07-03T03:31:02.151Z,76.70
2017-07-03T03:33:30.198Z,76.80
2017-07-03T03:35:58.250Z,76.60
2017-07-03T03:38:26.339Z,77.30
2017-07-03T03:40:54.394Z,77.30
2017-07-03T03:43:23.217Z,77.50
2017-07-03T03:45:51.686Z,78.10
2017-07-03T03:48:19.763Z,78.20
2017-07-03T03:50:47.845Z,78.20
2017-07-03T03:53:15.896Z,78.40
2017-07-03T03:55:43.968Z,78.90
2017-07-03T03:58:12.146Z,77.70
2017-07-03T04:00:40.998Z,77.80
2017-07-03T04:03:09.057Z,76.70
2017-07-03T04:05:37.881Z,77.40
2017-07-03T04:08:05.955Z,77.00
2017-07-03T04:10:34.026Z,77.30
2017-07-03T04:13:02.116Z,77.80
2017-07-03T04:15:30.256Z,77.90
2017-07-03T04:17:58.310Z,78.50
2017-07-03T04:20:27.146Z,79.70
2017-07-03T04:22:55.968Z,78.50
2017-07-03T04:25:24.105Z,78.60
2017-07-03T04:27:52.182Z,78.20
2017-07-03T04:30:20.236Z,78.80
2017-07-03T04:32:49.090Z,78.70
2017-07-03T04:35:17.146Z,78.50
2017-07-03T04:37:45.285Z,78.30
2017-07-03T04:40:13.377Z,78.10
2017-07-03T04:42:41.831Z,77.00
2017-07-03T04:45:09.885Z,75.70
2017-07-03T04:50:12.895Z,76.20
2017-07-03T04:52:41.815Z,73.60
2017-07-03T04:55:09.866Z,72.30
2017-07-03T04:57:37.914Z,70.20
2017-07-03T05:00:06.389Z,70.20
2017-07-03T05:02:35.210Z,69.70
2017-07-03T05:05:03.687Z,68.50
2017-07-03T05:07:31.736Z,69.00
2017-07-03T05:10:00.259Z,69.30
2017-07-03T05:12:28.433Z,67.40
2017-07-03T05:14:56.889Z,66.30
2017-07-03T05:17:25.703Z,67.10
2017-07-03T05:19:53.788Z,65.80
2017-07-03T05:22:22.341Z,64.60
2017-07-03T05:24:50.400Z,63.90
2017-07-03T05:27:18.465Z,64.20
2017-07-03T05:29:47.301Z,65.00
2017-07-03T05:32:15.372Z,62.90
2017-07-03T05:34:43.455Z,63.20
2017-07-03T05:37:11.538Z,63.80
2017-07-03T05:39:39.604Z,63.70
2017-07-03T05:42:07.776Z,63.80
2017-07-03T05:44:36.227Z,61.00
2017-07-03T05:47:04.286Z,61.20
2017-07-03T05:49:33.128Z,60.40
2017-07-03T05:52:01.621Z,62.10
2017-07-03T05:54:29.683Z,60.50
2017-07-03T05:56:58.138Z,60.70
2017-07-03T05:59:26.218Z,60.80
2017-07-03T06:01:54.274Z,59.50
2017-07-03T06:04:22.326Z,59.10
2017-07-03T06:06:50.414Z,58.60
2017-07-03T06:09:18.465Z,57.00
2017-07-03T06:11:46.918Z,58.00
2017-07-03T06:14:14.991Z,57.40
2017-07-03T06:16:43.043Z,56.90
2017-07-03T06:19:11.131Z,57.20
2017-07-03T06:21:39.182Z,55.20
2017-07-03T06:24:07.250Z,54.60
2017-07-03T06:26:35.342Z,54.90
2017-07-03T06:29:03.403Z,54.70
2017-07-03T06:31:31.548Z,54.50
2017-07-03T06:33:59.659Z,54.60
2017-07-03T06:36:27.742Z,53.30
2017-07-03T06:38:55.766Z,55.10
2017-07-03T06:41:23.855Z,53.10
2017-07-03T06:43:51.910Z,54.20
2017-07-03T06:46:19.963Z,53.70
2017-07-03T06:48:48.040Z,53.40
2017-07-03T06:51:16.513Z,52.50
2017-07-03T06:53:44.600Z,50.60
2017-07-03T06:56:12.660Z,49.50
2017-07-03T06:58:40.718Z,49.40
2017-07-03T07:01:08.832Z,50.80
2017-07-03T07:03:36.869Z,46.60
2017-07-03T07:06:04.946Z,47.40
2017-07-03T07:08:33.042Z,48.20
2017-07-03T07:11:01.981Z,45.60
2017-07-03T07:13:30.085Z,46.20
2017-07-03T07:15:59.294Z,44.60
2017-07-03T07:18:27.406Z,45.20
2017-07-03T07:20:55.461Z,45.50
2017-07-03T07:23:23.910Z,44.60
2017-07-03T07:25:52.121Z,43.90
2017-07-03T07:28:20.162Z,45.00
2017-07-03T07:30:48.989Z,43.30
2017-07-03T07:33:17.062Z,43.40
2017-07-03T07:35:45.519Z,43.30
2017-07-03T07:38:13.602Z,42.90
2017-07-03T07:40:41.666Z,43.80
2017-07-03T07:43:09.730Z,44.50
2017-07-03T07:45:37.817Z,44.00
2017-07-03T07:48:05.877Z,43.80
2017-07-03T07:50:33.945Z,44.50
2017-07-03T07:53:02.067Z,44.00
2017-07-03T07:55:30.886Z,45.10
2017-07-03T07:57:59.733Z,44.20
2017-07-03T08:00:27.829Z,44.00
2017-07-03T08:02:56.238Z,44.80
2017-07-03T08:05:24.329Z,45.30
2017-07-03T08:07:52.381Z,42.70
2017-07-03T08:10:20.821Z,42.70
2017-07-03T08:12:49.658Z,42.80
2017-07-03T08:15:17.765Z,43.40
2017-07-03T08:17:45.823Z,42.40
2017-07-03T08:20:13.968Z,42.30
2017-07-03T08:22:42.019Z,43.00
2017-07-03T08:25:10.069Z,43.30
2017-07-03T08:27:38.912Z,43.30
2017-07-03T08:30:07.181Z,42.00
2017-07-03T08:32:35.237Z,42.40
2017-07-03T08:35:03.293Z,42.10
2017-07-03T08:37:32.146Z,43.40
2017-07-03T08:40:00.966Z,41.90
2017-07-03T08:42:29.791Z,42.30
2017-07-03T08:44:57.878Z,41.30
2017-07-03T08:47:26.332Z,40.40
2017-07-03T08:49:54.393Z,39.70
2017-07-03T08:52:23.225Z,39.50
2017-07-03T08:54:51.665Z,38.50
2017-07-03T08:57:19.750Z,38.90
2017-07-03T08:59:48.578Z,36.60
2017-07-03T09:02:16.625Z,36.90
2017-07-03T09:04:45.110Z,36.70
2017-07-03T09:07:13.165Z,38.10
2017-07-03T09:09:42.358Z,38.40
2017-07-03T09:12:10.850Z,37.10
2017-07-03T09:14:38.910Z,38.00
2017-07-03T09:17:07.354Z,37.90
2017-07-03T09:19:35.837Z,38.60
2017-07-03T09:22:03.894Z,36.30
2017-07-03T09:24:31.946Z,34.80
2017-07-03T09:27:00.022Z,32.80
2017-07-03T09:29:28.078Z,34.50
2017-07-03T09:31:56.554Z,35.00
2017-07-03T09:34:24.607Z,33.50
2017-07-03T09:36:52.672Z,34.60
2017-07-03T09:39:21.518Z,36.30
2017-07-03T09:41:49.571Z,35.10
2017-07-03T09:44:18.035Z,33.10
2017-07-03T09:46:46.895Z,33.90
2017-07-03T09:49:14.950Z,32.70
2017-07-03T09:51:43.399Z,31.00
2017-07-03T09:54:11.474Z,32.40
2017-07-03T09:56:40.303Z,31.70
2017-07-03T09:59:09.172Z,30.60
2017-07-03T10:01:38.000Z,29.80
2017-07-03T10:04:06.819Z,30.20
2017-07-03T10:06:34.902Z,29.50
2017-07-03T10:09:02.955Z,30.40
2017-07-03T10:11:31.009Z,28.10
2017-07-03T10:13:59.842Z,29.50
2017-07-03T10:16:27.917Z,27.80
2017-07-03T10:18:56.050Z,26.70
2017-07-03T10:21:24.138Z,26.20
2017-07-03T10:23:52.586Z,26.90
2017-07-03T10:26:21.443Z,26.40
2017-07-03T10:28:49.485Z,27.20
2017-07-03T10:31:17.534Z,26.90
2017-07-03T10:33:45.607Z,26.70
2017-07-03T10:36:13.653Z,27.30
2017-07-03T10:38:42.519Z,26.90
2017-07-03T10:41:10.566Z,27.00
2017-07-03T10:43:39.383Z,26.50
2017-07-03T10:46:07.465Z,26.80
2017-07-03T10:48:35.526Z,28.10
2017-07-03T10:51:03.666Z,28.70
2017-07-03T10:53:31.841Z,27.50
2017-07-03T10:55:59.893Z,27.10
2017-07-03T10:58:28.342Z,26.20
2017-07-03T11:00:56.816Z,26.00
2017-07-03T11:03:25.263Z,26.20
2017-07-03T11:05:53.351Z,24.90
2017-07-03T11:08:21.402Z,24.70
2017-07-03T11:10:49.453Z,26.30
2017-07-03T11:13:17.639Z,27.20
2017-07-03T11:15:46.470Z,25.50
2017-07-03T11:18:14.605Z,25.50
2017-07-03T11:20:42.694Z,24.70
2017-07-03T11:23:10.746Z,25.20
2017-07-03T11:25:39.225Z,24.30
2017-07-03T11:28:07.820Z,23.40
2017-07-03T11:30:35.870Z,22.70
2017-07-03T11:33:04.325Z,22.10
2017-07-03T11:35:33.149Z,22.40
2017-07-03T11:38:01.623Z,23.20
2017-07-03T11:40:30.939Z,22.90
2017-07-03T11:42:59.726Z,23.00
2017-07-03T11:45:27.802Z,22.30
2017-07-03T11:47:55.859Z,21.50
2017-07-03T11:50:24.301Z,21.70
2017-07-03T11:52:53.155Z,21.20
2017-07-03T11:55:21.207Z,21.10
2017-07-03T11:57:49.289Z,21.10
2017-07-03T12:00:17.458Z,20.60
2017-07-03T12:02:45.526Z,20.40
2017-07-03T12:05:13.598Z,21.00
2017-07-03T12:07:41.683Z,18.40
2017-07-03T12:10:10.503Z,19.30
2017-07-03T12:12:38.584Z,17.80
2017-07-03T12:15:06.674Z,20.10
2017-07-03T12:17:34.747Z,18.90
2017-07-03T12:20:03.583Z,16.80
2017-07-03T12:22:32.624Z,17.80
2017-07-03T12:25:01.473Z,17.90
2017-07-03T12:27:29.530Z,16.70
2017-07-03T12:29:58.420Z,17.80
2017-07-03T12:32:26.898Z,18.00
2017-07-03T12:34:54.941Z,18.70
2017-07-03T12:37:22.997Z,17.00
2017-07-03T12:39:51.890Z,19.00
2017-07-03T12:42:20.706Z,20.60
2017-07-03T12:44:48.762Z,20.60
2017-07-03T12:47:17.618Z,19.50
2017-07-03T12:49:45.657Z,19.10
2017-07-03T12:52:13.709Z,18.80
2017-07-03T12:54:41.782Z,18.70
2017-07-03T12:57:09.833Z,19.20
2017-07-03T12:59:39.425Z,20.40
2017-07-03T13:02:08.249Z,18.70
2017-07-03T13:04:36.294Z,17.90
2017-07-03T13:07:05.230Z,18.60
2017-07-03T13:09:34.072Z,17.90
2017-07-03T13:12:02.526Z,17.20
2017-07-03T13:14:30.598Z,16.00
2017-07-03T13:16:58.660Z,17.50
2017-07-03T13:19:26.753Z,18.10
2017-07-03T13:21:54.805Z,18.50
2017-07-03T13:24:22.849Z,18.30
2017-07-03T13:26:50.925Z,17.30
2017-07-03T13:29:19.406Z,18.00
2017-07-03T13:31:47.471Z,15.40
2017-07-03T13:34:15.542Z,15.90
2017-07-03T13:36:43.599Z,16.90
2017-07-03T13:39:11.684Z,16.70
2017-07-03T13:41:39.746Z,16.40
2017-07-03T13:44:07.798Z,16.80
2017-07-03T13:46:36.635Z,18.90
2017-07-03T13:49:04.708Z,19.90
2017-07-03T13:51:32.794Z,20.20
2017-07-03T13:54:00.855Z,19.10
2017-07-03T13:56:28.921Z,17.90
2017-07-03T13:58:56.989Z,17.60
2017-07-03T14:01:25.041Z,17.60
2017-07-03T14:03:53.113Z,17.70
2017-07-03T14:06:21.221Z,17.70
2017-07-03T14:08:49.287Z,16.50
2017-07-03T14:11:17.738Z,16.30
2017-07-03T14:13:45.852Z,16.50
2017-07-03T14:16:13.906Z,16.00
2017-07-03T14:18:42.010Z,16.10
2017-07-03T14:21:10.080Z,16.70
2017-07-03T14:23:38.162Z,16.80
2017-07-03T14:26:07.723Z,17.40
2017-07-03T14:28:35.781Z,18.20
2017-07-03T14:31:03.866Z,16.90
2017-07-03T14:33:31.917Z,17.00
2017-07-03T14:36:00.398Z,15.00
2017-07-03T14:38:28.907Z,16.60
2017-07-03T14:40:56.958Z,17.10
2017-07-03T14:43:25.401Z,18.20
2017-07-03T14:45:53.467Z,18.80
2017-07-03T14:48:21.551Z,17.10
2017-07-03T14:50:49.997Z,17.10
2017-07-03T14:53:18.158Z,16.10
2017-07-03T14:55:46.629Z,17.20
2017-07-03T14:58:14.711Z,17.20
2017-07-03T15:00:42.773Z,17.40
2017-07-03T15:03:10.959Z,17.90
2017-07-03T15:05:39.022Z,18.50
2017-07-03T15:08:07.083Z,19.20
2017-07-03T15:10:35.167Z,17.50
2017-07-03T15:13:03.238Z,17.10
2017-07-03T15:15:31.298Z,17.10
2017-07-03T15:17:59.375Z,16.60
2017-07-03T15:20:27.562Z,17.50
2017-07-03T15:22:55.633Z,17.40
2017-07-03T15:25:24.450Z,17.50
2017-07-03T15:27:52.594Z,18.40
2017-07-03T15:30:20.776Z,18.90
2017-07-03T15:32:48.937Z,18.30
2017-07-03T15:35:17.003Z,17.60
2017-07-03T15:37:45.499Z,18.40
2017-07-03T15:40:13.674Z,17.50
2017-07-03T15:42:41.731Z,18.10
2017-07-03T15:45:10.183Z,18.10
2017-07-03T15:47:38.716Z,19.00
2017-07-03T15:50:06.765Z,17.90
2017-07-03T15:52:34.854Z,17.60
2017-07-03T15:55:03.022Z,19.10
2017-07-03T15:57:31.518Z,19.60
2017-07-03T16:00:00.312Z,20.30
2017-07-03T16:02:28.470Z,19.90
2017-07-03T16:04:56.523Z,19.80
2017-07-03T16:07:24.613Z,20.80
2017-07-03T16:09:52.686Z,21.40
2017-07-03T16:12:20.755Z,20.90
2017-07-03T16:14:48.934Z,20.00
2017-07-03T16:17:16.998Z,19.80
2017-07-03T16:19:45.045Z,19.40
2017-07-03T16:22:13.121Z,19.80
2017-07-03T16:24:41.578Z,20.60
2017-07-03T16:27:10.414Z,21.90
2017-07-03T16:29:38.506Z,21.40
2017-07-03T16:32:07.330Z,21.60
2017-07-03T16:34:35.377Z,21.50
2017-07-03T16:37:03.866Z,21.70
2017-07-03T16:39:31.923Z,20.70
2017-07-03T16:41:59.973Z,20.40
2017-07-03T16:44:28.043Z,20.70
2017-07-03T16:46:56.886Z,20.70
2017-07-03T16:49:24.971Z,21.10
2017-07-03T16:51:53.786Z,21.50
2017-07-03T16:54:21.834Z,21.70
2017-07-03T16:56:50.701Z,22.40
2017-07-03T16:59:18.750Z,22.70
2017-07-03T17:01:47.241Z,21.80
2017-07-03T17:04:15.727Z,21.90
2017-07-03T17:09:13.108Z,21.10
2017-07-03T17:14:11.263Z,21.30
2017-07-03T17:16:39.371Z,21.60
2017-07-03T17:19:07.424Z,21.90
2017-07-03T17:21:35.502Z,22.80
2017-07-03T17:24:03.557Z,22.40
2017-07-03T17:26:31.616Z,22.70
2017-07-03T17:29:00.088Z,22.70
2017-07-03T17:31:28.141Z,23.30
2017-07-03T17:33:56.590Z,23.20
2017-07-03T17:36:24.676Z,24.00
2017-07-03T17:38:53.495Z,24.50
2017-07-03T17:41:22.325Z,24.70
2017-07-03T17:43:50.386Z,24.80
2017-07-03T17:46:18.457Z,25.50
2017-07-03T17:48:46.501Z,25.40
2017-07-03T17:51:14.583Z,25.60
2017-07-03T17:53:42.643Z,26.10
2017-07-03T17:56:10.682Z,26.30
2017-07-03T17:58:39.526Z,27.40
2017-07-03T18:01:07.573Z,26.70
2017-07-03T18:03:35.668Z,26.70
2017-07-03T18:06:04.526Z,26.80
2017-07-03T18:08:33.341Z,26.80
2017-07-03T18:11:02.203Z,27.00
2017-07-03T18:13:30.258Z,27.60
2017-07-03T18:15:59.070Z,28.80
2017-07-03T18:18:27.146Z,28.00
2017-07-03T18:20:55.957Z,27.70
2017-07-03T18:23:24.046Z,28.10
2017-07-03T18:25:52.117Z,27.90
2017-07-03T18:28:20.168Z,27.60
2017-07-03T18:30:48.257Z,27.40
2017-07-03T18:33:16.335Z,28.00
2017-07-03T18:35:44.427Z,27.70
2017-07-03T18:38:12.490Z,27.80
2017-07-03T18:40:40.555Z,27.10
2017-07-03T18:43:08.702Z,27.40
2017-07-03T18:45:36.777Z,27.70
2017-07-03T18:48:04.960Z,27.70
2017-07-03T18:50:33.136Z,28.00
2017-07-03T18:53:01.624Z,27.90
2017-07-03T18:55:30.091Z,28.20
2017-07-03T18:57:59.040Z,29.00
2017-07-03T19:00:27.883Z,28.80
2017-07-03T19:02:55.972Z,28.50
2017-07-03T19:05:24.148Z,27.70
2017-07-03T19:07:52.349Z,27.60
2017-07-03T19:10:20.492Z,28.10
2017-07-03T19:12:51.108Z,28.20
2017-07-03T19:15:19.578Z,28.10
2017-07-03T19:17:47.638Z,28.40
2017-07-03T19:20:15.763Z,28.70
2017-07-03T19:22:43.878Z,29.20
2017-07-03T19:25:11.966Z,29.30
2017-07-03T19:27:40.464Z,29.30
2017-07-03T19:30:08.520Z,29.60
2017-07-03T19:32:36.595Z,30.00
2017-07-03T19:35:04.703Z,30.40
2017-07-03T19:37:34.387Z,30.80
2017-07-03T19:40:02.456Z,31.20
2017-07-03T19:42:30.535Z,30.50
2017-07-03T19:44:58.634Z,31.60
2017-07-03T19:47:26.713Z,31.40
2017-07-03T19:49:55.544Z,32.20
2017-07-03T19:52:23.639Z,32.30
2017-07-03T19:54:51.703Z,32.40
2017-07-03T19:57:20.934Z,32.60
2017-07-03T19:59:49.086Z,33.10
2017-07-03T20:02:17.153Z,33.10
2017-07-03T20:04:45.233Z,34.00
2017-07-03T20:07:13.323Z,34.50
2017-07-03T20:09:41.406Z,34.40
2017-07-03T20:12:09.503Z,34.20
2017-07-03T20:14:37.776Z,33.50
2017-07-03T20:17:05.906Z,33.00
2017-07-03T20:19:34.975Z,33.20
2017-07-03T20:22:03.097Z,32.60
2017-07-03T20:24:31.146Z,33.30
2017-07-03T20:26:59.211Z,33.20
2017-07-03T20:29:27.305Z,33.40
2017-07-03T20:31:55.379Z,33.50
2017-07-03T20:34:23.442Z,33.50
2017-07-03T20:36:51.545Z,33.10
2017-07-03T20:39:19.615Z,34.00
2017-07-03T20:41:48.459Z,34.10
2017-07-03T20:44:16.563Z,34.10
2017-07-03T20:46:45.551Z,33.90
2017-07-03T20:49:14.220Z,32.90
2017-07-03T20:51:42.273Z,33.30
2017-07-03T20:54:10.363Z,33.90
2017-07-03T20:56:38.464Z,32.40
2017-07-03T20:59:07.318Z,33.90
2017-07-03T21:01:35.932Z,32.30
2017-07-03T21:04:04.029Z,32.00
2017-07-03T21:06:32.093Z,33.10
2017-07-03T21:09:00.954Z,33.70
2017-07-03T21:11:29.079Z,33.70
2017-07-03T21:13:57.165Z,33.80
2017-07-03T21:16:25.238Z,33.20
2017-07-03T21:18:56.310Z,32.60
2017-07-03T21:21:24.377Z,32.60
2017-07-03T21:23:52.514Z,32.70
2017-07-03T21:26:21.331Z,34.00
2017-07-03T21:28:49.394Z,33.90
2017-07-03T21:31:17.463Z,34.30
2017-07-03T21:33:45.570Z,34.00
2017-07-03T21:36:13.655Z,34.10
2017-07-03T21:38:41.725Z,33.70
2017-07-03T21:41:09.798Z,33.60
2017-07-03T21:43:38.667Z,35.40
2017-07-03T21:46:06.741Z,34.70
2017-07-03T21:48:34.839Z,35.00
2017-07-03T21:51:02.943Z,34.30
2017-07-03T21:53:31.014Z,34.20
2017-07-03T21:55:59.124Z,34.80
2017-07-03T21:58:27.271Z,35.90
2017-07-03T22:00:55.315Z,35.10
2017-07-03T22:03:23.442Z,35.90
2017-07-03T22:05:51.530Z,36.10
2017-07-03T22:08:19.561Z,36.70
2017-07-03T22:10:47.665Z,37.40
2017-07-03T22:13:15.747Z,37.30
2017-07-03T22:15:43.833Z,37.80
2017-07-03T22:18:12.294Z,37.90
2017-07-03T22:20:40.424Z,38.10
2017-07-03T22:23:08.522Z,38.00
2017-07-03T22:25:36.607Z,37.90
2017-07-03T22:28:04.692Z,38.10
2017-07-03T22:30:33.524Z,38.10
2017-07-03T22:33:02.003Z,38.20
2017-07-03T22:35:30.075Z,38.20
2017-07-03T22:37:58.140Z,38.60
2017-07-03T22:40:26.221Z,38.60
2017-07-03T22:42:54.304Z,38.60
2017-07-03T22:45:22.372Z,38.30
2017-07-03T22:47:50.555Z,38.80
2017-07-03T22:50:18.635Z,39.30
2017-07-03T22:52:46.693Z,39.30
2017-07-03T22:55:14.799Z,39.40
2017-07-03T22:57:42.845Z,39.60
2017-07-03T23:00:12.075Z,39.50
2017-07-03T23:02:40.177Z,39.70
2017-07-03T23:05:09.021Z,40.00
2017-07-03T23:07:37.074Z,39.50
2017-07-03T23:10:05.157Z,39.30
2017-07-03T23:12:33.256Z,39.40
2017-07-03T23:15:02.094Z,39.20
2017-07-03T23:17:30.622Z,39.80
2017-07-03T23:19:58.691Z,39.70
2017-07-03T23:22:26.757Z,39.80
2017-07-03T23:24:55.254Z,40.40
2017-07-03T23:27:23.318Z,41.10
2017-07-03T23:29:51.779Z,41.20
2017-07-03T23:32:19.898Z,40.70
2017-07-03T23:34:48.742Z,41.30
2017-07-03T23:37:16.782Z,40.70
2017-07-03T23:39:44.885Z,40.70
2017-07-03T23:42:12.945Z,41.10
2017-07-03T23:44:42.559Z,41.40
2017-07-03T23:47:10.637Z,41.50
2017-07-03T23:49:39.068Z,41.50
2017-07-03T23:52:07.948Z,41.80
2017-07-03T23:54:36.021Z,41.60
2017-07-03T23:57:04.135Z,41.60
2017-07-03T23:59:32.221Z,41.40
